Douglas, Georgia
Current Conditions -  °F | °C
As of 2:15 PM on Tuesday 21 Oct 2014 (Local Time) from KDQH Reporting Station
Clear Clear  
Wind Chill: 81°   Ceiling: Unl
Heat Index: 81°   Visibility: 10mi
Dew Point: 48°   Wind: 6mph
Humidity: 32%   Direction: 270°W
Pressure: 29.96"   Gusts: NA
Location:  31.51°N, 82.85°W
Report Text: KDQH 211815Z AUTO 27005KT 10SM CLR 27/09 A2996 RMK AO2
Loading
Personal Weather Stations






























Interactive Weather Map
Tropical Storm Tracking
New forecast layout! Learn more

10-Day Weather Forecast

Advertisements
Track Severe Weather on mobile